Time;durP1;ratioP1;P1;durP2;ratioP2;P2;SDS_P1;SDS_P2;PMS_P1;PMS_P2;Temp;Humidity;BMP_temperature;BMP_pressure;BME280_temperature;BME280_humidity;BME280_pressure;Samples;Min_cycle;Max_cycle;Signal;HPM_P1;HPM_P2
2023/08/07 00:00:36;;;;;;;5.88;2.50;;;14.30;99.90;;;;;;5102215;27;20051;-69
2023/08/07 00:03:02;;;;;;;0.25;0.25;;;14.30;99.90;;;;;;5120063;27;20039;-67
2023/08/07 00:05:28;;;;;;;4.22;1.52;;;14.30;99.90;;;;;;5130706;27;20053;-68
2023/08/07 00:07:54;;;;;;;0.98;0.98;;;14.30;99.90;;;;;;5108796;27;20493;-67
2023/08/07 00:10:19;;;;;;;1.08;1.05;;;14.30;99.90;;;;;;5099399;27;20047;-67
2023/08/07 00:12:45;;;;;;;1.77;0.60;;;14.30;99.90;;;;;;5137235;27;20065;-68
2023/08/07 00:15:19;;;;;;;1.65;0.82;;;14.30;99.90;;;;;;5121501;27;20035;-68
2023/08/07 00:17:44;;;;;;;1.73;0.57;;;14.30;99.90;;;;;;5106254;27;20390;-68
2023/08/07 00:20:10;;;;;;;0.35;0.35;;;14.30;99.90;;;;;;5102419;27;20045;-69
2023/08/07 00:22:36;;;;;;;1.95;0.57;;;14.30;99.90;;;;;;5109521;28;20383;-68
2023/08/07 00:28:43;;;;;;;0.68;0.68;;;14.30;99.90;;;;;;5115031;28;20031;-68
2023/08/07 00:34:50;;;;;;;0.98;0.55;;;14.30;99.90;;;;;;5115163;28;20043;-67
2023/08/07 00:37:15;;;;;;;2.30;0.47;;;14.30;99.90;;;;;;5096736;28;20425;-67
2023/08/07 00:40:04;;;;;;;0.30;0.30;;;14.30;99.90;;;;;;5099093;27;20474;-68
2023/08/07 00:42:29;;;;;;;0.65;0.47;;;14.30;99.90;;;;;;5104349;27;20030;-68
2023/08/07 00:44:55;;;;;;;0.47;0.47;;;14.30;99.90;;;;;;5109105;27;20032;-68
2023/08/07 00:47:21;;;;;;;0.35;0.30;;;14.30;99.90;;;;;;5102425;27;20504;-68
2023/08/07 00:50:28;;;;;;;1.25;0.60;;;14.30;99.90;;;;;;5113121;27;20054;-67
2023/08/07 00:52:54;;;;;;;1.05;1.00;;;14.30;99.90;;;;;;5102721;27;20120;-68
2023/08/07 00:55:20;;;;;;;2.53;1.95;;;14.30;99.90;;;;;;5106251;27;20044;-68
2023/08/07 00:57:46;;;;;;;0.35;0.35;;;14.30;99.90;;;;;;5112052;27;20058;-69
2023/08/07 01:00:13;;;;;;;4.68;0.68;;;14.30;99.90;;;;;;5107955;27;20046;-68
2023/08/07 01:02:39;;;;;;;0.50;0.50;;;14.20;99.90;;;;;;5101617;28;20502;-68
2023/08/07 01:05:06;;;;;;;0.25;0.22;;;14.30;99.90;;;;;;5105894;27;20050;-68
2023/08/07 01:07:31;;;;;;;0.30;0.30;;;14.30;99.90;;;;;;5108205;27;20028;-70
2023/08/07 01:10:02;;;;;;;0.15;0.15;;;14.30;99.90;;;;;;5105682;27;20080;-68
2023/08/07 01:12:36;;;;;;;3.72;0.35;;;14.30;99.90;;;;;;5106025;27;20046;-69
2023/08/07 01:15:16;;;;;;;0.85;0.85;;;14.40;99.90;;;;;;5136899;27;20046;-71
2023/08/07 01:17:44;;;;;;;0.43;0.32;;;14.30;99.90;;;;;;5096705;27;20040;-68
2023/08/07 01:20:10;;;;;;;5.47;2.47;;;14.40;99.90;;;;;;5107310;28;20035;-69
2023/08/07 01:22:39;;;;;;;0.50;0.50;;;14.30;99.90;;;;;;5103916;28;20067;-68
2023/08/07 01:25:05;;;;;;;0.30;0.30;;;14.30;99.90;;;;;;5099149;28;20035;-70
2023/08/07 01:27:46;;;;;;;4.28;1.70;;;14.30;99.90;;;;;;5099615;27;20386;-72
2023/08/07 01:30:17;;;;;;;0.63;0.63;;;14.30;99.90;;;;;;5104460;27;20401;-69
2023/08/07 01:33:04;;;;;;;0.30;0.30;;;14.20;99.90;;;;;;5106374;28;20076;-69
2023/08/07 01:35:35;;;;;;;0.70;0.70;;;14.20;99.90;;;;;;5118858;27;20042;-71
2023/08/07 01:38:02;;;;;;;0.70;0.70;;;14.10;99.90;;;;;;5104610;27;20043;-72
2023/08/07 01:40:28;;;;;;;0.43;0.43;;;14.20;99.90;;;;;;5102387;28;20044;-68
2023/08/07 01:42:55;;;;;;;0.63;0.63;;;14.20;99.90;;;;;;5106553;27;20035;-69
2023/08/07 01:45:25;;;;;;;5.13;1.75;;;14.20;99.90;;;;;;5100171;28;20398;-68
2023/08/07 01:47:52;;;;;;;0.80;0.60;;;14.20;99.90;;;;;;5105632;28;20402;-69
2023/08/07 01:50:21;;;;;;;12.63;2.80;;;14.10;99.90;;;;;;5101221;28;20054;-69
2023/08/07 01:52:47;;;;;;;0.68;0.68;;;14.20;99.90;;;;;;5098968;28;20689;-69
2023/08/07 01:55:19;;;;;;;0.25;0.25;;;14.10;99.90;;;;;;5104410;28;20051;-69
2023/08/07 01:57:44;;;;;;;2.60;0.83;;;14.10;99.90;;;;;;5098742;28;20043;-69
2023/08/07 02:00:11;;;;;;;0.15;0.15;;;14.10;99.90;;;;;;5131735;27;20096;-69
2023/08/07 02:02:37;;;;;;;2.47;0.47;;;14.10;99.90;;;;;;5097574;28;20366;-69
2023/08/07 02:05:04;;;;;;;0.25;0.22;;;14.10;99.90;;;;;;5105432;28;20047;-69
2023/08/07 02:07:30;;;;;;;0.55;0.50;;;14.10;99.90;;;;;;5104703;28;20035;-69
2023/08/07 02:09:55;;;;;;;0.95;0.95;;;14.10;99.90;;;;;;5103704;28;20480;-69
2023/08/07 02:12:21;;;;;;;0.20;0.20;;;14.10;99.90;;;;;;5103276;28;20047;-69
2023/08/07 02:14:46;;;;;;;1.40;0.80;;;14.10;99.90;;;;;;5132934;27;20035;-70
2023/08/07 02:17:12;;;;;;;2.08;0.50;;;14.10;99.90;;;;;;5104285;28;20082;-71
2023/08/07 02:19:38;;;;;;;3.85;0.60;;;14.10;99.90;;;;;;5097990;28;20042;-70
2023/08/07 02:22:03;;;;;;;0.63;0.60;;;14.20;99.90;;;;;;5105715;27;20041;-70
2023/08/07 02:24:29;;;;;;;0.10;0.10;;;14.20;99.90;;;;;;5106246;27;20043;-69
2023/08/07 02:26:55;;;;;;;0.20;0.20;;;14.20;99.90;;;;;;5105912;27;20034;-68
2023/08/07 02:29:20;;;;;;;1.27;1.17;;;14.20;99.90;;;;;;5108104;27;20397;-70
2023/08/07 02:31:46;;;;;;;1.45;0.35;;;14.20;99.90;;;;;;5107737;27;20039;-69
2023/08/07 02:34:11;;;;;;;0.20;0.20;;;14.20;99.90;;;;;;5138124;27;20489;-68
2023/08/07 02:36:37;;;;;;;0.20;0.20;;;14.20;99.90;;;;;;5101548;27;20081;-70
2023/08/07 02:39:04;;;;;;;0.20;0.20;;;14.20;99.90;;;;;;5120974;27;20504;-68
2023/08/07 02:41:30;;;;;;;0.10;0.10;;;14.10;99.90;;;;;;5104451;27;20046;-68
2023/08/07 02:43:56;;;;;;;0.77;0.77;;;14.10;99.90;;;;;;5105816;27;20478;-70
2023/08/07 02:46:22;;;;;;;1.25;0.30;;;14.10;99.90;;;;;;5107552;27;20139;-70
2023/08/07 02:48:47;;;;;;;0.32;0.32;;;14.10;99.90;;;;;;5103977;27;20042;-69
2023/08/07 02:51:13;;;;;;;0.40;0.40;;;14.10;99.90;;;;;;5102369;27;20042;-69
2023/08/07 02:53:38;;;;;;;0.95;0.95;;;14.10;99.90;;;;;;5122885;27;20101;-68
2023/08/07 02:56:04;;;;;;;2.50;0.93;;;14.10;99.90;;;;;;5102031;27;20050;-70
2023/08/07 02:58:30;;;;;;;2.45;0.17;;;14.10;99.90;;;;;;5136696;27;20043;-68
2023/08/07 03:00:56;;;;;;;0.20;0.20;;;14.10;99.90;;;;;;5105411;27;20035;-69
2023/08/07 03:03:21;;;;;;;1.80;0.77;;;14.10;99.90;;;;;;5109404;27;20080;-70
2023/08/07 03:05:51;;;;;;;2.28;0.85;;;14.00;99.90;;;;;;5103985;27;20039;-68
2023/08/07 03:08:17;;;;;;;0.55;0.40;;;14.00;99.90;;;;;;5098394;27;20035;-69
2023/08/07 03:10:52;;;;;;;1.48;0.38;;;14.00;99.90;;;;;;5106086;27;20082;-69
2023/08/07 03:13:18;;;;;;;0.10;0.10;;;14.00;99.90;;;;;;5101112;27;20572;-70
2023/08/07 03:15:43;;;;;;;0.40;0.35;;;13.90;99.90;;;;;;5092900;27;20039;-70
2023/08/07 03:18:09;;;;;;;0.22;0.22;;;13.90;99.90;;;;;;5102635;27;20035;-68
2023/08/07 03:20:47;;;;;;;0.20;0.20;;;13.90;99.90;;;;;;5121252;27;20088;-68
2023/08/07 03:23:12;;;;;;;0.55;0.55;;;13.90;99.90;;;;;;5100507;27;20054;-68
2023/08/07 03:25:38;;;;;;;0.20;0.20;;;13.80;99.90;;;;;;5099290;27;20032;-68
2023/08/07 03:28:04;;;;;;;0.82;0.82;;;13.90;99.90;;;;;;5100759;27;20054;-69
2023/08/07 03:30:29;;;;;;;0.10;0.10;;;13.80;99.90;;;;;;5097834;27;20054;-69
2023/08/07 03:32:55;;;;;;;1.27;0.93;;;13.80;99.90;;;;;;5098499;27;20456;-69
2023/08/07 03:35:20;;;;;;;0.20;0.20;;;13.80;99.90;;;;;;5102888;27;20051;-69
2023/08/07 03:37:46;;;;;;;0.40;0.40;;;13.80;99.90;;;;;;5095772;27;20483;-68
2023/08/07 03:40:12;;;;;;;0.10;0.10;;;13.80;99.90;;;;;;5104736;27;21251;-70
2023/08/07 03:42:37;;;;;;;0.10;0.10;;;13.80;99.90;;;;;;5099726;27;20038;-69
2023/08/07 03:45:03;;;;;;;0.10;0.10;;;13.80;99.90;;;;;;5102574;27;20051;-69
2023/08/07 03:47:28;;;;;;;0.55;0.50;;;13.80;99.90;;;;;;5100000;27;20050;-69
2023/08/07 03:49:54;;;;;;;0.93;0.63;;;13.80;99.90;;;;;;5104128;27;20122;-70
2023/08/07 03:52:20;;;;;;;0.20;0.20;;;13.90;99.90;;;;;;5121021;27;20035;-71
2023/08/07 03:54:46;;;;;;;2.38;0.63;;;13.90;99.90;;;;;;5103235;27;20031;-73
2023/08/07 03:57:11;;;;;;;4.03;0.52;;;14.00;99.90;;;;;;5099898;27;20032;-74
2023/08/07 03:59:37;;;;;;;2.17;0.50;;;14.10;99.90;;;;;;5100484;27;20071;-73
2023/08/07 04:02:03;;;;;;;0.25;0.17;;;14.10;99.90;;;;;;5127767;27;20430;-72
2023/08/07 04:04:28;;;;;;;2.63;1.52;;;14.10;99.90;;;;;;5101599;27;20041;-70
2023/08/07 04:06:54;;;;;;;5.38;2.35;;;14.10;99.90;;;;;;5097736;27;20063;-70
2023/08/07 04:09:20;;;;;;;0.47;0.47;;;14.10;99.90;;;;;;5128204;27;20035;-72
2023/08/07 04:11:45;;;;;;;1.10;0.90;;;14.10;99.90;;;;;;5099266;27;20058;-68
2023/08/07 04:14:11;;;;;;;0.10;0.10;;;14.00;99.90;;;;;;5115394;27;20036;-69
2023/08/07 04:16:37;;;;;;;0.40;0.40;;;14.10;99.90;;;;;;5096365;27;20050;-70
2023/08/07 04:19:03;;;;;;;0.22;0.22;;;14.10;99.90;;;;;;5099114;27;20423;-69
2023/08/07 04:21:30;;;;;;;3.17;0.68;;;14.10;99.90;;;;;;5097953;27;20050;-67
2023/08/07 04:23:57;;;;;;;0.38;0.38;;;14.00;99.90;;;;;;5097368;27;20071;-69
2023/08/07 04:26:22;;;;;;;2.22;0.28;;;14.10;99.90;;;;;;5105474;27;20614;-68
2023/08/07 04:28:48;;;;;;;0.20;0.20;;;14.00;99.90;;;;;;5130860;27;20114;-68
2023/08/07 04:31:13;;;;;;;0.43;0.22;;;14.00;99.90;;;;;;5135001;27;20047;-70
2023/08/07 04:33:39;;;;;;;0.60;0.60;;;14.00;99.90;;;;;;5101973;27;20130;-69
2023/08/07 04:36:05;;;;;;;0.70;0.63;;;14.00;99.90;;;;;;5100547;27;20085;-70
2023/08/07 04:38:30;;;;;;;1.23;0.30;;;14.00;99.90;;;;;;5102446;27;20060;-69
2023/08/07 04:40:56;;;;;;;1.90;0.90;;;14.00;99.90;;;;;;5095271;28;20371;-68
2023/08/07 04:43:22;;;;;;;0.20;0.20;;;14.00;99.90;;;;;;5112550;27;20031;-68
2023/08/07 04:45:48;;;;;;;0.80;0.28;;;14.10;99.90;;;;;;5108511;27;20417;-68
2023/08/07 04:48:14;;;;;;;0.68;0.68;;;14.10;99.90;;;;;;5106372;27;20552;-68
2023/08/07 04:50:40;;;;;;;0.82;0.32;;;14.00;99.90;;;;;;5120358;27;20401;-67
2023/08/07 04:53:06;;;;;;;0.15;0.15;;;14.10;99.90;;;;;;5102650;27;20054;-69
2023/08/07 04:55:32;;;;;;;1.02;0.40;;;14.10;99.90;;;;;;5101694;27;20035;-72
2023/08/07 04:57:58;;;;;;;0.32;0.32;;;14.20;99.90;;;;;;5095810;27;20122;-70
2023/08/07 05:00:24;;;;;;;20.95;0.70;;;14.20;99.90;;;;;;5099842;27;20043;-69
2023/08/07 05:02:51;;;;;;;1.05;1.05;;;14.20;99.90;;;;;;5107581;27;20042;-74
2023/08/07 05:05:20;;;;;;;0.73;0.73;;;14.30;99.90;;;;;;5095925;27;20080;-71
2023/08/07 05:07:46;;;;;;;6.57;0.55;;;14.30;99.90;;;;;;5102542;27;20039;-68
2023/08/07 05:10:12;;;;;;;0.88;0.88;;;14.30;99.90;;;;;;5097663;27;20047;-68
2023/08/07 05:12:37;;;;;;;3.88;0.45;;;14.30;99.90;;;;;;5097882;27;20047;-69
2023/08/07 05:15:03;;;;;;;0.82;0.82;;;14.30;99.90;;;;;;5102753;27;20039;-71
2023/08/07 05:17:31;;;;;;;12.77;1.85;;;14.40;99.90;;;;;;5100812;27;20149;-72
2023/08/07 05:19:57;;;;;;;1.90;1.55;;;14.50;99.90;;;;;;5129624;27;20043;-67
2023/08/07 05:22:22;;;;;;;0.30;0.30;;;14.50;99.90;;;;;;5096699;27;20387;-74
2023/08/07 05:24:49;;;;;;;0.38;0.35;;;14.50;99.90;;;;;;5095774;27;20118;-72
2023/08/07 05:27:15;;;;;;;3.05;0.55;;;14.50;99.90;;;;;;5095827;27;20043;-73
2023/08/07 05:29:43;;;;;;;1.85;1.25;;;14.40;99.90;;;;;;5099124;27;20537;-74
2023/08/07 05:32:13;;;;;;;0.50;0.50;;;14.40;99.90;;;;;;5094211;27;20039;-72
2023/08/07 05:34:39;;;;;;;3.13;0.52;;;14.30;99.90;;;;;;5095787;27;20039;-71
2023/08/07 05:37:05;;;;;;;1.50;1.40;;;14.40;99.90;;;;;;5092848;28;20039;-71
2023/08/07 05:39:30;;;;;;;0.43;0.43;;;14.40;99.90;;;;;;5076906;27;20031;-71
2023/08/07 05:41:57;;;;;;;1.08;0.73;;;14.40;99.90;;;;;;5093864;27;20407;-74
2023/08/07 05:44:23;;;;;;;0.63;0.63;;;14.30;99.90;;;;;;5094475;28;20130;-70
2023/08/07 05:46:49;;;;;;;0.30;0.30;;;14.30;99.90;;;;;;5077530;28;20448;-72
2023/08/07 05:49:15;;;;;;;0.52;0.35;;;14.30;99.90;;;;;;5098396;28;20065;-70
2023/08/07 05:51:41;;;;;;;3.38;1.67;;;14.30;99.90;;;;;;5084238;28;21056;-71
2023/08/07 05:54:07;;;;;;;0.30;0.30;;;14.30;99.90;;;;;;5096191;27;20051;-70
2023/08/07 05:56:32;;;;;;;4.95;1.23;;;14.20;99.90;;;;;;5106898;27;20118;-73
2023/08/07 05:58:58;;;;;;;2.45;0.52;;;14.40;99.90;;;;;;5114427;27;20120;-68
2023/08/07 06:01:29;;;;;;;0.38;0.38;;;14.50;99.90;;;;;;5105570;27;20038;-70
2023/08/07 06:03:55;;;;;;;4.38;1.05;;;14.70;99.90;;;;;;5103225;27;20050;-70
2023/08/07 06:06:20;;;;;;;1.15;1.05;;;14.90;99.90;;;;;;5106174;27;20039;-74
2023/08/07 06:08:46;;;;;;;0.85;0.85;;;15.00;99.90;;;;;;5098001;27;20135;-72
2023/08/07 06:11:12;;;;;;;4.45;0.80;;;15.00;99.90;;;;;;5132063;27;20508;-74
2023/08/07 06:13:40;;;;;;;16.13;0.75;;;15.10;99.90;;;;;;5137401;27;20405;-71
2023/08/07 06:16:06;;;;;;;0.57;0.57;;;15.00;99.90;;;;;;5109753;27;20459;-72
2023/08/07 06:18:31;;;;;;;1.50;1.23;;;15.00;99.90;;;;;;5106873;27;20063;-70
2023/08/07 06:20:57;;;;;;;1.35;0.63;;;15.00;99.90;;;;;;5106982;27;20125;-70
2023/08/07 06:23:23;;;;;;;1.20;1.10;;;15.00;99.90;;;;;;5109211;27;20039;-70
2023/08/07 06:25:48;;;;;;;0.65;0.65;;;15.00;99.90;;;;;;5102368;27;20405;-74
2023/08/07 06:28:14;;;;;;;1.00;1.00;;;15.00;99.90;;;;;;5105862;27;20043;-75
2023/08/07 06:30:39;;;;;;;0.38;0.38;;;14.90;99.90;;;;;;5110862;27;20040;-72
2023/08/07 06:33:05;;;;;;;1.85;0.52;;;14.80;99.90;;;;;;5117083;27;20061;-72
2023/08/07 06:35:31;;;;;;;5.22;0.90;;;14.90;99.90;;;;;;5104474;27;20073;-70
2023/08/07 06:37:56;;;;;;;2.05;0.90;;;14.90;99.90;;;;;;5103761;27;20088;-72
2023/08/07 06:40:22;;;;;;;0.40;0.40;;;14.90;99.90;;;;;;5104921;27;20031;-73
2023/08/07 06:42:47;;;;;;;0.20;0.20;;;14.90;99.90;;;;;;5101123;27;20406;-72
2023/08/07 06:45:13;;;;;;;4.13;0.60;;;15.00;99.90;;;;;;5104589;27;20435;-73
2023/08/07 06:47:38;;;;;;;0.45;0.45;;;15.10;99.90;;;;;;5116098;27;20028;-70
2023/08/07 06:50:05;;;;;;;3.70;0.70;;;15.20;99.90;;;;;;5102829;27;20478;-72
2023/08/07 06:52:30;;;;;;;1.20;0.90;;;15.10;99.90;;;;;;5110174;27;20043;-71
2023/08/07 06:54:56;;;;;;;2.17;0.52;;;15.20;99.90;;;;;;5104561;27;20074;-72
2023/08/07 06:57:22;;;;;;;0.95;0.95;;;15.10;99.90;;;;;;5102389;27;20083;-70
2023/08/07 06:59:47;;;;;;;0.73;0.73;;;15.20;99.90;;;;;;5110962;27;20626;-73
2023/08/07 07:02:13;;;;;;;1.85;0.52;;;15.20;99.90;;;;;;5101582;28;20521;-75
2023/08/07 07:04:38;;;;;;;4.65;1.33;;;15.30;99.90;;;;;;5100153;27;20043;-67
2023/08/07 07:07:04;;;;;;;2.65;0.85;;;15.50;99.90;;;;;;5102704;27;20039;-71
2023/08/07 07:09:30;;;;;;;2.10;1.05;;;15.60;99.90;;;;;;5103079;27;20043;-69
2023/08/07 07:11:56;;;;;;;2.28;0.60;;;15.60;99.90;;;;;;5104757;27;20038;-69
2023/08/07 07:14:22;;;;;;;2.45;0.85;;;15.50;99.90;;;;;;5102954;27;20084;-69
2023/08/07 07:16:48;;;;;;;0.52;0.52;;;15.50;99.90;;;;;;5098291;27;20039;-68
2023/08/07 07:19:13;;;;;;;0.73;0.50;;;15.50;99.90;;;;;;5101492;27;20042;-73
2023/08/07 07:21:39;;;;;;;1.65;0.80;;;15.50;99.90;;;;;;5102542;27;20057;-68
2023/08/07 07:24:06;;;;;;;0.63;0.55;;;15.50;99.90;;;;;;5101287;27;20023;-71
2023/08/07 07:26:32;;;;;;;0.98;0.65;;;15.50;99.90;;;;;;5111585;27;20040;-70
2023/08/07 07:28:57;;;;;;;0.20;0.20;;;15.50;99.90;;;;;;5099015;27;20032;-70
2023/08/07 07:31:23;;;;;;;3.22;0.55;;;15.50;99.90;;;;;;5103191;27;20478;-73
2023/08/07 07:33:51;;;;;;;14.57;0.85;;;15.50;99.90;;;;;;5095443;27;20055;-66
2023/08/07 07:36:18;;;;;;;7.38;0.93;;;15.60;99.90;;;;;;5103189;27;20039;-68
2023/08/07 07:38:47;;;;;;;1.02;0.52;;;15.70;99.90;;;;;;5104076;27;20115;-73
2023/08/07 07:41:13;;;;;;;0.88;0.75;;;15.60;99.90;;;;;;5100846;27;20087;-72
2023/08/07 07:43:39;;;;;;;1.17;1.08;;;15.60;99.90;;;;;;5099437;27;20544;-73
2023/08/07 07:46:04;;;;;;;0.55;0.55;;;15.60;99.90;;;;;;5096631;27;20266;-72
2023/08/07 07:48:30;;;;;;;2.30;0.93;;;15.50;99.90;;;;;;5099840;27;20031;-74
2023/08/07 07:51:00;;;;;;;1.30;0.80;;;15.60;99.90;;;;;;5096387;27;20528;-71
2023/08/07 07:53:26;;;;;;;0.95;0.88;;;15.60;99.90;;;;;;5102668;27;20058;-69
2023/08/07 07:55:52;;;;;;;0.30;0.30;;;15.50;99.90;;;;;;5101936;27;20113;-73
2023/08/07 07:58:17;;;;;;;1.33;1.15;;;15.30;99.90;;;;;;5116310;27;20035;-71
2023/08/07 08:00:43;;;;;;;0.30;0.30;;;15.10;99.90;;;;;;5098563;27;20039;-73
2023/08/07 08:03:08;;;;;;;0.30;0.30;;;14.90;99.90;;;;;;5102101;27;20031;-69
2023/08/07 08:05:34;;;;;;;1.63;0.85;;;14.80;99.90;;;;;;5095626;27;20039;-70
2023/08/07 08:08:01;;;;;;;0.60;0.60;;;14.90;99.90;;;;;;5101841;27;20035;-73
2023/08/07 08:10:27;;;;;;;3.10;0.75;;;15.00;99.90;;;;;;5119764;27;20121;-70
2023/08/07 08:12:55;;;;;;;0.30;0.30;;;15.20;99.90;;;;;;5105622;27;20046;-73
2023/08/07 08:15:21;;;;;;;0.45;0.45;;;15.50;99.90;;;;;;5095112;27;20385;-69
2023/08/07 08:17:47;;;;;;;0.20;0.20;;;15.60;99.90;;;;;;5097772;28;20039;-73
2023/08/07 08:20:20;;;;;;;7.13;2.63;;;15.80;99.90;;;;;;5097972;27;20461;-73
2023/08/07 08:22:46;;;;;;;0.70;0.70;;;15.80;99.90;;;;;;5102681;27;20318;-71
2023/08/07 08:25:12;;;;;;;0.73;0.47;;;15.90;99.90;;;;;;5100051;27;20105;-71
2023/08/07 08:27:40;;;;;;;1.65;0.38;;;15.90;99.90;;;;;;5099011;27;20043;-69
2023/08/07 08:30:06;;;;;;;7.45;2.78;;;16.00;99.90;;;;;;5082631;27;20042;-74
2023/08/07 08:32:32;;;;;;;0.75;0.75;;;16.20;99.90;;;;;;5102710;27;20126;-70
2023/08/07 08:34:58;;;;;;;0.90;0.45;;;16.10;99.90;;;;;;5107285;27;20130;-71
2023/08/07 08:37:24;;;;;;;0.57;0.55;;;16.10;99.90;;;;;;5119346;27;20039;-75
2023/08/07 08:39:49;;;;;;;1.85;1.42;;;15.50;99.90;;;;;;5097322;27;20073;-71
2023/08/07 08:42:17;;;;;;;0.43;0.22;;;14.60;99.90;;;;;;5100613;27;20031;-73
2023/08/07 08:44:51;;;;;;;0.90;0.75;;;14.20;99.90;;;;;;5113763;27;20040;-73
2023/08/07 08:47:18;;;;;;;2.25;0.95;;;13.90;99.90;;;;;;5099459;27;20509;-74
2023/08/07 08:49:50;;;;;;;5.00;1.58;;;13.80;99.90;;;;;;5100013;27;20039;-72
2023/08/07 08:52:16;;;;;;;0.32;0.20;;;13.80;99.90;;;;;;5102824;27;20041;-71
2023/08/07 08:54:43;;;;;;;1.70;0.98;;;13.80;99.90;;;;;;5143580;27;20042;-73
2023/08/07 08:57:11;;;;;;;4.30;0.57;;;13.70;99.90;;;;;;5111805;27;20205;-72
2023/08/07 08:59:37;;;;;;;0.43;0.43;;;13.70;99.90;;;;;;5108185;27;21009;-71
2023/08/07 09:02:04;;;;;;;1.27;1.17;;;13.90;99.90;;;;;;5109794;27;20111;-73
2023/08/07 09:04:29;;;;;;;1.13;0.60;;;14.00;99.90;;;;;;5107558;28;20067;-69
2023/08/07 09:06:55;;;;;;;3.60;1.08;;;14.10;99.90;;;;;;5096662;27;20035;-72
2023/08/07 09:09:22;;;;;;;0.43;0.43;;;14.30;99.90;;;;;;5102513;27;20043;-76
2023/08/07 09:11:49;;;;;;;1.17;1.17;;;14.50;99.90;;;;;;5103071;27;20039;-71
2023/08/07 09:14:24;;;;;;;0.50;0.50;;;14.70;99.90;;;;;;5099821;27;20047;-73
2023/08/07 09:16:50;;;;;;;0.98;0.70;;;14.90;99.90;;;;;;5096954;27;20047;-75
2023/08/07 09:19:15;;;;;;;0.22;0.22;;;15.10;99.90;;;;;;5101387;27;20072;-74
2023/08/07 09:21:41;;;;;;;0.82;0.65;;;15.40;99.90;;;;;;5116952;27;20050;-75
2023/08/07 09:24:07;;;;;;;1.05;1.05;;;15.60;99.90;;;;;;5099750;27;20473;-73
2023/08/07 09:26:35;;;;;;;1.40;0.25;;;15.70;99.90;;;;;;5106327;28;20501;-69
2023/08/07 09:29:02;;;;;;;0.68;0.65;;;15.90;99.90;;;;;;5092428;28;20085;-71
2023/08/07 09:31:30;;;;;;;1.08;0.75;;;16.00;99.90;;;;;;5100303;27;20039;-69
2023/08/07 09:34:02;;;;;;;1.85;1.25;;;16.00;99.90;;;;;;5110586;27;20038;-70
2023/08/07 09:36:31;;;;;;;1.23;1.23;;;16.00;99.90;;;;;;5128016;27;20043;-73
2023/08/07 09:39:00;;;;;;;4.38;1.45;;;16.10;99.90;;;;;;5106565;28;20051;-74
2023/08/07 09:41:27;;;;;;;0.45;0.45;;;16.30;99.90;;;;;;5108988;27;20567;-70
2023/08/07 09:43:53;;;;;;;0.30;0.30;;;16.40;99.90;;;;;;5104662;28;20035;-70
2023/08/07 09:46:18;;;;;;;2.88;0.70;;;16.50;99.90;;;;;;5104105;27;20039;-69
2023/08/07 09:48:44;;;;;;;0.65;0.65;;;16.30;99.90;;;;;;5132946;27;20050;-69
2023/08/07 09:51:10;;;;;;;13.07;3.40;;;16.20;99.90;;;;;;5102515;28;20557;-67
2023/08/07 09:53:36;;;;;;;1.33;1.20;;;16.00;99.90;;;;;;5099347;28;20513;-68
2023/08/07 09:56:02;;;;;;;0.50;0.50;;;15.80;99.90;;;;;;5101825;28;20035;-70
2023/08/07 09:58:28;;;;;;;10.23;0.60;;;15.60;99.90;;;;;;5096311;28;20043;-72
2023/08/07 10:00:55;;;;;;;0.20;0.20;;;15.70;99.90;;;;;;5105636;28;20092;-69
2023/08/07 10:03:22;;;;;;;22.35;0.68;;;15.80;99.90;;;;;;5100781;28;20122;-68
2023/08/07 10:05:48;;;;;;;0.73;0.40;;;15.90;99.90;;;;;;5103161;28;20031;-73
2023/08/07 10:08:14;;;;;;;1.02;0.55;;;16.10;99.90;;;;;;5134701;27;20554;-70
2023/08/07 10:10:40;;;;;;;1.35;0.43;;;16.20;99.90;;;;;;5097877;28;20052;-74
2023/08/07 10:13:05;;;;;;;0.20;0.20;;;16.30;99.90;;;;;;5105255;28;20047;-68
2023/08/07 10:15:32;;;;;;;3.70;0.98;;;16.40;99.90;;;;;;5102101;28;20039;-70
2023/08/07 10:17:58;;;;;;;0.60;0.60;;;16.40;99.90;;;;;;5101723;28;20077;-72
2023/08/07 10:20:27;;;;;;;1.00;0.45;;;16.50;99.90;;;;;;5098861;28;20063;-69
2023/08/07 10:22:53;;;;;;;3.90;2.60;;;16.70;99.90;;;;;;5104623;28;20389;-72
2023/08/07 10:25:23;;;;;;;1.50;1.10;;;16.70;99.90;;;;;;5096022;28;20190;-69
2023/08/07 10:27:52;;;;;;;3.22;1.88;;;16.80;99.90;;;;;;5098924;28;20039;-69
2023/08/07 10:30:20;;;;;;;0.90;0.50;;;16.90;99.90;;;;;;5116473;28;20130;-69
2023/08/07 10:32:46;;;;;;;1.10;1.08;;;16.90;99.90;;;;;;5107251;28;20035;-73
2023/08/07 10:35:32;;;;;;;0.38;0.38;;;16.90;99.90;;;;;;5096160;28;20096;-72
2023/08/07 10:38:11;;;;;;;8.30;2.08;;;16.80;99.90;;;;;;5102624;28;20035;-69
2023/08/07 10:40:58;;;;;;;0.80;0.63;;;16.70;99.90;;;;;;5117046;27;20071;-68
2023/08/07 10:43:24;;;;;;;14.75;2.60;;;16.50;99.90;;;;;;5110447;27;20038;-69
2023/08/07 10:45:51;;;;;;;0.20;0.20;;;16.40;99.90;;;;;;5111961;27;20127;-68
2023/08/07 10:48:21;;;;;;;1.40;1.00;;;16.30;99.90;;;;;;5107911;27;20039;-69
2023/08/07 10:50:57;;;;;;;0.90;0.85;;;16.30;99.90;;;;;;5125099;27;20039;-69
2023/08/07 10:53:38;;;;;;;0.90;0.73;;;16.30;99.90;;;;;;5098515;28;20056;-69
2023/08/07 10:56:07;;;;;;;2.17;1.75;;;16.50;99.90;;;;;;5110011;27;20043;-69
2023/08/07 10:58:36;;;;;;;0.77;0.77;;;16.60;99.90;;;;;;5098960;27;20047;-69
2023/08/07 11:01:30;;;;;;;0.40;0.40;;;16.70;99.90;;;;;;5102344;27;20047;-68
2023/08/07 11:04:00;;;;;;;1.17;1.00;;;16.60;99.90;;;;;;5095681;28;20118;-70
2023/08/07 11:06:31;;;;;;;0.60;0.60;;;16.60;99.90;;;;;;5085133;27;20040;-70
2023/08/07 11:08:57;;;;;;;0.50;0.50;;;16.70;99.90;;;;;;5101563;27;20036;-74
2023/08/07 11:11:23;;;;;;;0.55;0.55;;;16.90;99.90;;;;;;5110769;27;20082;-69
2023/08/07 11:13:50;;;;;;;0.68;0.68;;;16.90;99.90;;;;;;5111653;27;20082;-72
2023/08/07 11:16:16;;;;;;;1.15;1.15;;;16.80;99.90;;;;;;5115059;27;20084;-72
2023/08/07 11:18:43;;;;;;;1.55;1.13;;;16.80;99.90;;;;;;5109967;27;20155;-71
2023/08/07 11:21:12;;;;;;;2.72;1.08;;;16.70;99.90;;;;;;5101807;27;20038;-71
2023/08/07 11:23:39;;;;;;;1.35;0.63;;;16.70;99.90;;;;;;5094798;27;20039;-73
2023/08/07 11:26:05;;;;;;;9.00;0.63;;;16.80;99.90;;;;;;5112153;27;20071;-70
2023/08/07 11:28:31;;;;;;;0.45;0.32;;;16.80;99.90;;;;;;5108249;27;20078;-71
2023/08/07 11:30:57;;;;;;;0.30;0.25;;;16.70;99.90;;;;;;5138848;27;20032;-66
2023/08/07 11:33:27;;;;;;;3.40;0.65;;;16.60;99.90;;;;;;5098488;27;20084;-70
2023/08/07 11:35:53;;;;;;;1.00;0.60;;;16.60;99.90;;;;;;5114734;27;20086;-72
2023/08/07 11:38:37;;;;;;;3.08;0.60;;;16.50;99.90;;;;;;5099450;28;20092;-71
2023/08/07 11:41:05;;;;;;;1.25;0.60;;;16.50;99.90;;;;;;5115131;27;20100;-72
2023/08/07 11:43:32;;;;;;;0.93;0.82;;;16.50;99.90;;;;;;5123320;27;20415;-69
2023/08/07 11:46:00;;;;;;;1.55;1.00;;;16.80;99.90;;;;;;5095165;27;20080;-69
2023/08/07 11:48:27;;;;;;;0.90;0.68;;;17.00;99.90;;;;;;5097907;28;20035;-68
2023/08/07 11:50:54;;;;;;;1.58;0.85;;;17.20;99.90;;;;;;5117913;27;20087;-70
2023/08/07 11:53:26;;;;;;;1.42;0.28;;;17.20;99.90;;;;;;5109786;27;20047;-69
2023/08/07 11:55:54;;;;;;;8.38;0.63;;;17.10;99.90;;;;;;5114859;27;20039;-70
2023/08/07 11:58:20;;;;;;;0.40;0.40;;;17.10;99.90;;;;;;5099669;28;20449;-71
2023/08/07 12:00:46;;;;;;;0.40;0.40;;;17.10;99.90;;;;;;5100200;27;20101;-70
2023/08/07 12:03:29;;;;;;;3.20;1.27;;;17.10;99.90;;;;;;5118889;27;20078;-70
2023/08/07 12:06:03;;;;;;;2.30;0.75;;;17.20;99.90;;;;;;5115059;27;20501;-69
2023/08/07 12:08:39;;;;;;;3.63;1.88;;;17.20;99.90;;;;;;5112649;27;20043;-68
2023/08/07 12:11:10;;;;;;;2.17;1.15;;;17.30;99.90;;;;;;5104938;27;20252;-70
2023/08/07 12:13:41;;;;;;;0.50;0.50;;;17.40;99.90;;;;;;5103469;27;20363;-69
2023/08/07 12:16:08;;;;;;;0.47;0.40;;;17.40;99.90;;;;;;5143598;27;20043;-68
2023/08/07 12:18:35;;;;;;;0.35;0.35;;;17.30;99.90;;;;;;5106411;28;20131;-73
2023/08/07 12:21:06;;;;;;;1.08;1.00;;;17.20;99.90;;;;;;5148050;27;20070;-70
2023/08/07 12:23:36;;;;;;;0.35;0.35;;;17.20;99.90;;;;;;5118353;27;20043;-67
2023/08/07 12:26:02;;;;;;;0.90;0.90;;;17.30;99.90;;;;;;5114552;27;20046;-68
2023/08/07 12:28:28;;;;;;;0.22;0.22;;;17.20;99.90;;;;;;5106568;27;20083;-70
2023/08/07 12:30:53;;;;;;;0.38;0.38;;;17.20;99.90;;;;;;5117435;27;20042;-68
2023/08/07 12:33:19;;;;;;;2.08;1.88;;;17.00;99.90;;;;;;5101715;28;20397;-71
2023/08/07 12:35:46;;;;;;;1.38;1.00;;;17.00;99.90;;;;;;5093316;27;20452;-70
2023/08/07 12:38:13;;;;;;;0.20;0.20;;;17.00;99.90;;;;;;5106041;27;20042;-69
2023/08/07 12:40:39;;;;;;;0.90;0.90;;;17.20;99.90;;;;;;5121774;27;20465;-68
2023/08/07 12:43:06;;;;;;;0.20;0.20;;;17.10;99.90;;;;;;5104100;27;20094;-71
2023/08/07 12:45:32;;;;;;;0.22;0.22;;;17.00;99.90;;;;;;5094228;28;20036;-70
2023/08/07 12:47:59;;;;;;;0.40;0.40;;;17.00;99.90;;;;;;5101480;27;20051;-72
2023/08/07 12:50:25;;;;;;;0.30;0.30;;;16.80;99.90;;;;;;5120113;27;20060;-71
2023/08/07 12:52:50;;;;;;;0.52;0.52;;;16.60;99.90;;;;;;5104218;27;20043;-68